Time;durP1;ratioP1;P1;durP2;ratioP2;P2;SDS_P1;SDS_P2;PMS_P1;PMS_P2;Temp;Humidity;BMP_temperature;BMP_pressure;BME280_temperature;BME280_humidity;BME280_pressure;Samples;Min_cycle;Max_cycle;Signal;HPM_P1;HPM_P2
2022/07/22 00:02:15;;;;;;;12.70;11.50;;;;;;;;;;5105010;28;24797;-46
2022/07/22 00:04:40;;;;;;;12.60;11.50;;;;;;;;;;5096665;28;24433;-45
2022/07/22 00:07:06;;;;;;;12.93;11.82;;;;;;;;;;5097602;28;24418;-45
2022/07/22 00:09:32;;;;;;;12.33;11.33;;;;;;;;;;5095734;28;24430;-46
2022/07/22 00:11:57;;;;;;;13.30;12.10;;;;;;;;;;5094797;28;24414;-46
2022/07/22 00:14:22;;;;;;;14.13;12.93;;;;;;;;;;5089162;28;24429;-45
2022/07/22 00:16:47;;;;;;;12.80;11.70;;;;;;;;;;5091689;28;24513;-46
2022/07/22 00:19:12;;;;;;;13.07;11.98;;;;;;;;;;5099592;28;24426;-46
2022/07/22 00:21:38;;;;;;;13.23;12.07;;;;;;;;;;5094326;28;24458;-46
2022/07/22 00:24:03;;;;;;;12.73;11.63;;;;;;;;;;5096322;28;24792;-46
2022/07/22 00:26:28;;;;;;;12.90;11.70;;;;;;;;;;5092216;28;24426;-45
2022/07/22 00:28:54;;;;;;;12.87;11.77;;;;;;;;;;5097121;28;24469;-46
2022/07/22 00:31:19;;;;;;;13.13;12.00;;;;;;;;;;5094650;28;24989;-47
2022/07/22 00:33:44;;;;;;;12.87;11.77;;;;;;;;;;5096536;28;24836;-45
2022/07/22 00:36:09;;;;;;;12.90;11.70;;;;;;;;;;5104604;28;24428;-46
2022/07/22 00:38:34;;;;;;;13.10;11.90;;;;;;;;;;5089146;28;25060;-45
2022/07/22 00:41:00;;;;;;;13.10;11.90;;;;;;;;;;5096894;28;24851;-46
2022/07/22 00:43:25;;;;;;;13.13;11.93;;;;;;;;;;5103384;28;24533;-45
2022/07/22 00:45:50;;;;;;;13.10;11.90;;;;;;;;;;5089565;28;24422;-46
2022/07/22 00:48:15;;;;;;;13.23;12.03;;;;;;;;;;5095355;28;24490;-46
2022/07/22 00:50:41;;;;;;;13.20;12.00;;;;;;;;;;5097346;28;24468;-45
2022/07/22 00:53:06;;;;;;;13.15;12.05;;;;;;;;;;5107331;28;24487;-45
2022/07/22 00:55:32;;;;;;;13.10;11.83;;;;;;;;;;5105515;28;24421;-45
2022/07/22 00:57:58;;;;;;;14.13;12.82;;;;;;;;;;5101031;28;24776;-46
2022/07/22 01:00:23;;;;;;;13.63;12.32;;;;;;;;;;5099961;28;24959;-46
2022/07/22 01:02:48;;;;;;;12.77;11.70;;;;;;;;;;5102353;28;24409;-45
2022/07/22 01:05:13;;;;;;;13.00;11.90;;;;;;;;;;5108447;28;24990;-46
2022/07/22 01:07:39;;;;;;;13.83;12.63;;;;;;;;;;5102567;27;24467;-45
2022/07/22 01:10:04;;;;;;;13.93;12.63;;;;;;;;;;5101555;28;24632;-45
2022/07/22 01:12:29;;;;;;;13.90;12.43;;;;;;;;;;5091959;28;24424;-45
2022/07/22 01:14:55;;;;;;;12.77;11.67;;;;;;;;;;5105581;28;24441;-45
2022/07/22 01:17:20;;;;;;;12.53;11.43;;;;;;;;;;5091863;27;24506;-45
2022/07/22 01:19:45;;;;;;;13.50;12.40;;;;;;;;;;5098505;27;24972;-45
2022/07/22 01:22:10;;;;;;;13.50;12.30;;;;;;;;;;5101822;27;24512;-45
2022/07/22 01:24:35;;;;;;;13.90;12.70;;;;;;;;;;5107309;28;25038;-45
2022/07/22 01:27:01;;;;;;;13.20;12.00;;;;;;;;;;5104533;28;24426;-45
2022/07/22 01:29:26;;;;;;;13.70;12.50;;;;;;;;;;5090910;28;25113;-46
2022/07/22 01:31:51;;;;;;;14.68;13.48;;;;;;;;;;5105136;28;24708;-45
2022/07/22 01:34:16;;;;;;;13.73;12.53;;;;;;;;;;5101359;28;24866;-45
2022/07/22 01:36:41;;;;;;;14.43;13.13;;;;;;;;;;5101976;28;24708;-46
2022/07/22 01:39:06;;;;;;;15.40;14.10;;;;;;;;;;5092763;27;24967;-46
2022/07/22 01:41:32;;;;;;;14.00;12.80;;;;;;;;;;5098324;28;25054;-45
2022/07/22 01:43:57;;;;;;;13.67;12.47;;;;;;;;;;5098226;28;24425;-45
2022/07/22 01:46:23;;;;;;;13.90;12.70;;;;;;;;;;5101404;28;24433;-45
2022/07/22 01:48:49;;;;;;;14.70;13.30;;;;;;;;;;5099642;27;24579;-45
2022/07/22 01:51:14;;;;;;;15.20;13.90;;;;;;;;;;5095310;28;24417;-45
2022/07/22 01:53:39;;;;;;;13.57;12.48;;;;;;;;;;5094495;28;24437;-47
2022/07/22 01:56:04;;;;;;;13.90;12.70;;;;;;;;;;5097165;28;24534;-46
2022/07/22 01:58:30;;;;;;;13.30;12.20;;;;;;;;;;5098603;28;25221;-46
2022/07/22 02:00:55;;;;;;;13.27;12.18;;;;;;;;;;5094203;28;24456;-46
2022/07/22 02:03:20;;;;;;;15.00;13.70;;;;;;;;;;5089897;28;24433;-46
2022/07/22 02:05:45;;;;;;;15.90;14.60;;;;;;;;;;5101176;28;24460;-46
2022/07/22 02:08:10;;;;;;;14.57;13.18;;;;;;;;;;5105203;28;24967;-46
2022/07/22 02:10:36;;;;;;;13.90;12.70;;;;;;;;;;5102610;27;25005;-46
2022/07/22 02:13:02;;;;;;;15.00;13.40;;;;;;;;;;5102931;28;24587;-46
2022/07/22 02:15:27;;;;;;;14.17;12.87;;;;;;;;;;5105250;28;24839;-46
2022/07/22 02:17:53;;;;;;;17.47;15.87;;;;;;;;;;5101175;28;24413;-46
2022/07/22 02:20:18;;;;;;;14.52;13.23;;;;;;;;;;5091206;28;24446;-46
2022/07/22 02:22:43;;;;;;;15.07;13.77;;;;;;;;;;5091747;28;24453;-46
2022/07/22 02:25:09;;;;;;;15.02;13.52;;;;;;;;;;5091586;27;24528;-47
2022/07/22 02:27:34;;;;;;;14.37;13.00;;;;;;;;;;5097901;28;24417;-46
2022/07/22 02:29:59;;;;;;;14.18;12.88;;;;;;;;;;5101180;27;24475;-45
2022/07/22 02:32:24;;;;;;;14.40;13.10;;;;;;;;;;5097835;27;24425;-46
2022/07/22 02:34:49;;;;;;;13.40;12.30;;;;;;;;;;5106729;28;24436;-46
2022/07/22 02:37:15;;;;;;;13.80;12.60;;;;;;;;;;5100016;27;24434;-46
2022/07/22 02:39:40;;;;;;;14.23;13.03;;;;;;;;;;5096906;28;24531;-46
2022/07/22 02:42:05;;;;;;;14.80;13.50;;;;;;;;;;5097435;28;24461;-46
2022/07/22 02:44:30;;;;;;;16.60;15.00;;;;;;;;;;5107332;28;24784;-46
2022/07/22 02:46:55;;;;;;;14.68;13.43;;;;;;;;;;5096693;28;24433;-46
2022/07/22 02:49:20;;;;;;;15.02;13.73;;;;;;;;;;5099609;28;24430;-46
2022/07/22 02:51:45;;;;;;;14.63;13.32;;;;;;;;;;5094245;27;24440;-46
2022/07/22 02:54:11;;;;;;;15.30;13.98;;;;;;;;;;5091166;28;24436;-46
2022/07/22 02:56:36;;;;;;;15.10;13.70;;;;;;;;;;5095879;28;25054;-46
2022/07/22 02:59:01;;;;;;;14.60;13.30;;;;;;;;;;5106932;28;24425;-46
2022/07/22 03:01:26;;;;;;;15.07;13.77;;;;;;;;;;5099096;27;24532;-45
2022/07/22 03:03:51;;;;;;;14.40;13.10;;;;;;;;;;5095995;27;24433;-45
2022/07/22 03:06:16;;;;;;;15.07;13.68;;;;;;;;;;5105696;28;24444;-44
2022/07/22 03:08:42;;;;;;;14.02;12.82;;;;;;;;;;5105481;27;24819;-45
2022/07/22 03:11:07;;;;;;;14.90;13.60;;;;;;;;;;5092160;28;24525;-45
2022/07/22 03:13:32;;;;;;;14.15;12.85;;;;;;;;;;5094636;28;24431;-45
2022/07/22 03:15:57;;;;;;;14.15;12.95;;;;;;;;;;5105689;28;24425;-44
2022/07/22 03:18:22;;;;;;;14.30;13.00;;;;;;;;;;5105221;27;24509;-45
2022/07/22 03:20:47;;;;;;;14.23;13.03;;;;;;;;;;5103307;28;24425;-45
2022/07/22 03:23:13;;;;;;;14.30;13.00;;;;;;;;;;5091640;27;24469;-46
2022/07/22 03:25:38;;;;;;;14.90;13.50;;;;;;;;;;5097530;28;25110;-45
2022/07/22 03:28:04;;;;;;;14.80;13.50;;;;;;;;;;5096031;28;24505;-44
2022/07/22 03:30:30;;;;;;;15.00;13.73;;;;;;;;;;5106365;28;24532;-45
2022/07/22 03:32:55;;;;;;;15.52;14.02;;;;;;;;;;5101091;28;25009;-45
2022/07/22 03:35:20;;;;;;;15.43;13.93;;;;;;;;;;5087579;28;24460;-45
2022/07/22 03:37:46;;;;;;;15.63;14.23;;;;;;;;;;5088584;28;26125;-46
2022/07/22 03:40:11;;;;;;;15.20;13.90;;;;;;;;;;5105843;28;24417;-46
2022/07/22 03:42:36;;;;;;;14.90;13.60;;;;;;;;;;5096093;28;24441;-45
2022/07/22 03:45:02;;;;;;;15.50;14.10;;;;;;;;;;5103421;27;24437;-46
2022/07/22 03:47:27;;;;;;;13.47;12.30;;;;;;;;;;5085767;28;24422;-46
2022/07/22 03:49:52;;;;;;;15.80;14.30;;;;;;;;;;5096380;28;24457;-46
2022/07/22 03:52:18;;;;;;;14.23;13.03;;;;;;;;;;5095205;28;25094;-46
2022/07/22 03:54:43;;;;;;;14.60;13.30;;;;;;;;;;5093286;28;24421;-46
2022/07/22 03:57:08;;;;;;;14.95;13.65;;;;;;;;;;5102070;27;24422;-46
2022/07/22 03:59:34;;;;;;;13.77;12.57;;;;;;;;;;5099715;28;24433;-45
2022/07/22 04:01:59;;;;;;;14.80;13.50;;;;;;;;;;5101318;28;24425;-45
2022/07/22 04:04:24;;;;;;;15.90;14.50;;;;;;;;;;5101814;28;24567;-46
2022/07/22 04:06:51;;;;;;;14.27;12.98;;;;;;;;;;5096083;28;24417;-47
2022/07/22 04:09:16;;;;;;;14.25;12.85;;;;;;;;;;5096004;28;24601;-47
2022/07/22 04:11:41;;;;;;;13.30;12.10;;;;;;;;;;5091621;28;24562;-47
2022/07/22 04:14:06;;;;;;;13.05;11.95;;;;;;;;;;5096917;28;24497;-46
2022/07/22 04:16:31;;;;;;;13.40;12.30;;;;;;;;;;5100230;28;24517;-44
2022/07/22 04:18:57;;;;;;;14.05;12.75;;;;;;;;;;5090632;28;24426;-44
2022/07/22 04:21:22;;;;;;;13.17;11.97;;;;;;;;;;5097670;28;24418;-45
2022/07/22 04:23:47;;;;;;;12.93;11.83;;;;;;;;;;5090277;28;24458;-46
2022/07/22 04:26:12;;;;;;;13.07;11.98;;;;;;;;;;5092810;28;24448;-44
2022/07/22 04:28:37;;;;;;;13.45;12.30;;;;;;;;;;5097087;28;24418;-45
2022/07/22 04:31:03;;;;;;;12.80;11.80;;;;;;;;;;5097199;28;24425;-45
2022/07/22 04:33:28;;;;;;;12.80;11.70;;;;;;;;;;5103702;28;25108;-46
2022/07/22 04:35:54;;;;;;;12.63;11.63;;;;;;;;;;5093657;28;24426;-46
2022/07/22 04:38:19;;;;;;;12.15;11.05;;;;;;;;;;5090599;27;24472;-45
2022/07/22 04:40:44;;;;;;;13.85;12.70;;;;;;;;;;5103114;27;24824;-46
2022/07/22 04:43:09;;;;;;;13.23;12.02;;;;;;;;;;5101467;27;24409;-45
2022/07/22 04:45:34;;;;;;;13.03;11.93;;;;;;;;;;5096557;27;24502;-46
2022/07/22 04:47:59;;;;;;;11.50;10.50;;;;;;;;;;5101573;27;24425;-46
2022/07/22 04:50:24;;;;;;;12.70;11.70;;;;;;;;;;5096881;27;24553;-46
2022/07/22 04:52:50;;;;;;;13.50;12.30;;;;;;;;;;5093770;27;25056;-45
2022/07/22 04:55:15;;;;;;;11.93;10.93;;;;;;;;;;5112196;27;24597;-45
2022/07/22 04:57:40;;;;;;;11.75;10.85;;;;;;;;;;5101713;27;24514;-45
2022/07/22 05:00:05;;;;;;;12.00;11.00;;;;;;;;;;5107463;28;24776;-45
2022/07/22 05:02:30;;;;;;;11.97;10.97;;;;;;;;;;5103446;28;24505;-45
2022/07/22 05:04:56;;;;;;;11.10;10.20;;;;;;;;;;5101823;28;24430;-45
2022/07/22 05:07:21;;;;;;;11.53;10.63;;;;;;;;;;5093561;28;24548;-45
2022/07/22 05:09:46;;;;;;;11.45;10.55;;;;;;;;;;5097610;28;24433;-45
2022/07/22 05:12:11;;;;;;;10.98;10.18;;;;;;;;;;5085057;28;24513;-45
2022/07/22 05:14:36;;;;;;;11.17;10.27;;;;;;;;;;5095104;28;24429;-46
2022/07/22 05:17:02;;;;;;;11.13;10.10;;;;;;;;;;5093876;28;24448;-46
2022/07/22 05:19:27;;;;;;;11.20;10.30;;;;;;;;;;5100301;28;24426;-45
2022/07/22 05:21:52;;;;;;;10.70;9.83;;;;;;;;;;5090079;27;25012;-45
2022/07/22 05:24:17;;;;;;;10.70;9.90;;;;;;;;;;5097447;27;24993;-45
2022/07/22 05:26:42;;;;;;;10.93;10.13;;;;;;;;;;5106569;28;24385;-45
2022/07/22 05:29:08;;;;;;;10.68;9.88;;;;;;;;;;5085569;28;24429;-46
2022/07/22 05:31:33;;;;;;;10.87;10.00;;;;;;;;;;5096734;28;24568;-46
2022/07/22 05:33:58;;;;;;;10.40;9.52;;;;;;;;;;5090215;28;24533;-46
2022/07/22 05:36:24;;;;;;;10.70;9.90;;;;;;;;;;5091536;28;24418;-46
2022/07/22 05:38:49;;;;;;;10.47;9.60;;;;;;;;;;5089396;28;24527;-46
2022/07/22 05:41:14;;;;;;;9.63;8.93;;;;;;;;;;5092922;28;24426;-46
2022/07/22 05:43:39;;;;;;;9.90;9.10;;;;;;;;;;5086144;27;24438;-46
2022/07/22 05:46:05;;;;;;;9.50;8.80;;;;;;;;;;5089830;28;24479;-44
2022/07/22 05:48:30;;;;;;;8.50;7.90;;;;;;;;;;5102190;28;24421;-45
2022/07/22 05:50:55;;;;;;;8.30;7.63;;;;;;;;;;5098871;28;25037;-46
2022/07/22 05:53:20;;;;;;;8.48;7.78;;;;;;;;;;5085047;28;25091;-45
2022/07/22 05:55:46;;;;;;;7.77;7.17;;;;;;;;;;5087838;28;24572;-46
2022/07/22 05:58:11;;;;;;;7.83;7.33;;;;;;;;;;5090156;27;24452;-45
2022/07/22 06:00:36;;;;;;;6.80;6.30;;;;;;;;;;5101272;27;24404;-46
2022/07/22 06:03:01;;;;;;;6.30;5.80;;;;;;;;;;5099106;28;24467;-46
2022/07/22 06:05:26;;;;;;;7.55;6.95;;;;;;;;;;5089252;28;24425;-46
2022/07/22 06:07:51;;;;;;;6.43;6.03;;;;;;;;;;5099942;28;24422;-45
2022/07/22 06:10:17;;;;;;;6.60;6.10;;;;;;;;;;5094906;28;24417;-46
2022/07/22 06:12:42;;;;;;;6.50;6.00;;;;;;;;;;5092286;28;24511;-45
2022/07/22 06:15:07;;;;;;;6.13;5.73;;;;;;;;;;5096662;27;24482;-45
2022/07/22 06:17:32;;;;;;;6.50;6.00;;;;;;;;;;5094611;28;24405;-46
2022/07/22 06:19:58;;;;;;;6.20;5.80;;;;;;;;;;5097770;28;24520;-45
2022/07/22 06:22:23;;;;;;;6.68;6.07;;;;;;;;;;5090887;28;24457;-45
2022/07/22 06:24:48;;;;;;;6.43;5.93;;;;;;;;;;5089432;28;25433;-45
2022/07/22 06:27:13;;;;;;;5.80;5.30;;;;;;;;;;5097622;28;24503;-47
2022/07/22 06:29:44;;;;;;;5.97;5.17;;;;;;;;;;5094831;28;24462;-46
2022/07/22 06:32:09;;;;;;;5.40;5.00;;;;;;;;;;5084569;28;24417;-45
2022/07/22 06:34:35;;;;;;;5.57;5.17;;;;;;;;;;5087130;28;24421;-46
2022/07/22 06:37:00;;;;;;;5.47;5.07;;;;;;;;;;5087523;28;24807;-46
2022/07/22 06:39:25;;;;;;;5.60;5.10;;;;;;;;;;5086869;28;24509;-46
2022/07/22 06:41:50;;;;;;;5.20;4.80;;;;;;;;;;5093269;28;24863;-45
2022/07/22 06:44:15;;;;;;;5.43;5.03;;;;;;;;;;5089491;28;24513;-45
2022/07/22 06:46:40;;;;;;;5.50;5.00;;;;;;;;;;5094277;28;24425;-46
2022/07/22 06:49:06;;;;;;;6.60;6.10;;;;;;;;;;5102705;28;24536;-46
2022/07/22 06:51:31;;;;;;;6.30;5.80;;;;;;;;;;5087579;28;24564;-46
2022/07/22 06:53:57;;;;;;;6.40;5.90;;;;;;;;;;5086654;28;24599;-46
2022/07/22 06:56:22;;;;;;;6.90;6.40;;;;;;;;;;5094823;28;24859;-45
2022/07/22 06:58:47;;;;;;;7.20;6.60;;;;;;;;;;5106586;28;24506;-46
2022/07/22 07:01:12;;;;;;;6.20;5.80;;;;;;;;;;5107482;28;24397;-46
2022/07/22 07:03:37;;;;;;;6.43;5.93;;;;;;;;;;5092432;28;24418;-46
2022/07/22 07:06:03;;;;;;;5.93;5.43;;;;;;;;;;5087085;28;24737;-46
2022/07/22 07:08:28;;;;;;;6.10;5.60;;;;;;;;;;5088278;28;24543;-46
2022/07/22 07:10:53;;;;;;;5.90;5.40;;;;;;;;;;5090486;28;24421;-46
2022/07/22 07:13:18;;;;;;;6.40;5.90;;;;;;;;;;5104060;28;24819;-45
2022/07/22 07:15:43;;;;;;;6.90;5.63;;;;;;;;;;5106321;28;24429;-46
2022/07/22 07:18:09;;;;;;;6.03;5.63;;;;;;;;;;5097095;28;24421;-45
2022/07/22 07:20:34;;;;;;;6.82;6.28;;;;;;;;;;5086425;28;24430;-46
2022/07/22 07:23:01;;;;;;;6.67;6.07;;;;;;;;;;5094795;28;24414;-46
2022/07/22 07:25:26;;;;;;;6.75;6.25;;;;;;;;;;5093957;28;24426;-45
2022/07/22 07:27:51;;;;;;;5.80;5.40;;;;;;;;;;5086814;28;24488;-45
2022/07/22 07:30:16;;;;;;;6.60;6.10;;;;;;;;;;5086758;28;24497;-46
2022/07/22 07:32:41;;;;;;;6.27;5.77;;;;;;;;;;5086113;28;24475;-46
2022/07/22 07:35:07;;;;;;;5.70;5.30;;;;;;;;;;5086605;28;24425;-46
2022/07/22 07:37:32;;;;;;;5.57;5.07;;;;;;;;;;5085920;28;24982;-46
2022/07/22 07:39:57;;;;;;;6.20;5.70;;;;;;;;;;5087452;28;24426;-46
2022/07/22 07:42:23;;;;;;;6.50;6.00;;;;;;;;;;5085715;28;24475;-47
2022/07/22 07:44:48;;;;;;;5.90;5.50;;;;;;;;;;5102758;28;24432;-46
2022/07/22 07:47:17;;;;;;;6.72;6.13;;;;;;;;;;5088232;28;24421;-46
2022/07/22 07:49:42;;;;;;;6.28;5.88;;;;;;;;;;5086849;28;24995;-46
2022/07/22 07:52:07;;;;;;;6.20;5.70;;;;;;;;;;5083583;28;24501;-47
2022/07/22 07:54:32;;;;;;;7.00;6.50;;;;;;;;;;5099282;28;24780;-46
2022/07/22 07:56:58;;;;;;;7.25;6.65;;;;;;;;;;5104244;28;25105;-46
2022/07/22 07:59:23;;;;;;;7.90;7.20;;;;;;;;;;5101831;28;24476;-46
2022/07/22 08:01:48;;;;;;;7.17;6.57;;;;;;;;;;5089526;28;24503;-46
2022/07/22 08:04:13;;;;;;;7.43;6.83;;;;;;;;;;5100633;28;24483;-47
2022/07/22 08:06:38;;;;;;;6.53;6.03;;;;;;;;;;5086349;28;24390;-46
2022/07/22 08:09:03;;;;;;;7.63;6.93;;;;;;;;;;5103877;28;24836;-46
2022/07/22 08:11:29;;;;;;;7.57;6.97;;;;;;;;;;5098868;28;24414;-46
2022/07/22 08:13:54;;;;;;;8.00;7.20;;;;;;;;;;5098896;28;24959;-46
2022/07/22 08:16:19;;;;;;;6.90;6.40;;;;;;;;;;5108704;28;24514;-46
2022/07/22 08:18:44;;;;;;;7.60;7.00;;;;;;;;;;5092890;28;24425;-46
2022/07/22 08:21:09;;;;;;;7.07;6.57;;;;;;;;;;5092650;28;24924;-46
2022/07/22 08:23:35;;;;;;;7.10;6.50;;;;;;;;;;5092397;28;24434;-46
2022/07/22 08:26:00;;;;;;;7.60;6.90;;;;;;;;;;5092766;28;25047;-46
2022/07/22 08:28:25;;;;;;;7.50;6.90;;;;;;;;;;5092191;28;24433;-46
2022/07/22 08:30:50;;;;;;;8.00;7.30;;;;;;;;;;5092442;28;25038;-46
2022/07/22 08:33:16;;;;;;;6.73;6.23;;;;;;;;;;5092287;28;24417;-46
2022/07/22 08:35:41;;;;;;;7.53;6.93;;;;;;;;;;5092606;28;24406;-46
2022/07/22 08:38:06;;;;;;;7.22;6.63;;;;;;;;;;5092818;28;24421;-46
2022/07/22 08:40:31;;;;;;;7.37;6.77;;;;;;;;;;5106699;28;24422;-46
2022/07/22 08:42:57;;;;;;;6.90;6.40;;;;;;;;;;5103742;28;24414;-46
2022/07/22 08:45:22;;;;;;;7.60;7.00;;;;;;;;;;5111512;28;24474;-46
2022/07/22 08:47:48;;;;;;;7.90;7.30;;;;;;;;;;5104297;28;25006;-45
2022/07/22 08:50:14;;;;;;;8.07;7.37;;;;;;;;;;5108308;28;24445;-45
2022/07/22 08:52:39;;;;;;;8.00;7.40;;;;;;;;;;5105796;28;24491;-46
2022/07/22 08:55:08;;;;;;;6.90;6.40;;;;;;;;;;5092063;28;24801;-46
2022/07/22 08:57:33;;;;;;;7.97;7.38;;;;;;;;;;5095420;28;24420;-46
2022/07/22 08:59:59;;;;;;;7.10;6.50;;;;;;;;;;5092181;28;24761;-46
2022/07/22 09:02:26;;;;;;;8.43;7.72;;;;;;;;;;5090896;28;21248;-46
2022/07/22 09:05:00;;;;;;;8.17;7.57;;;;;;;;;;5092450;28;24398;-46
2022/07/22 09:07:26;;;;;;;8.40;7.70;;;;;;;;;;5092084;28;24414;-46
2022/07/22 09:09:51;;;;;;;7.88;7.28;;;;;;;;;;5103604;28;24625;-46
2022/07/22 09:12:16;;;;;;;7.72;7.13;;;;;;;;;;5093268;28;24985;-46
2022/07/22 09:14:45;;;;;;;8.15;7.50;;;;;;;;;;5112587;28;24404;-46
2022/07/22 09:17:29;;;;;;;7.50;6.90;;;;;;;;;;5110236;27;24812;-46
2022/07/22 09:19:55;;;;;;;7.70;7.20;;;;;;;;;;5099077;28;24483;-46
2022/07/22 09:22:33;;;;;;;7.70;7.10;;;;;;;;;;5091418;28;24461;-46
2022/07/22 09:24:58;;;;;;;8.23;7.63;;;;;;;;;;5106150;28;24507;-45
2022/07/22 09:27:24;;;;;;;8.52;7.82;;;;;;;;;;5103881;28;24433;-44
2022/07/22 09:29:50;;;;;;;7.85;7.25;;;;;;;;;;5091875;28;24417;-46
2022/07/22 09:32:15;;;;;;;8.40;7.80;;;;;;;;;;5100269;28;24844;-46
2022/07/22 09:34:40;;;;;;;7.50;7.00;;;;;;;;;;5109552;28;24424;-46
2022/07/22 09:37:05;;;;;;;8.23;7.53;;;;;;;;;;5091506;28;24552;-46
2022/07/22 09:39:31;;;;;;;7.75;7.05;;;;;;;;;;5108857;28;24420;-46
2022/07/22 09:41:58;;;;;;;8.48;7.78;;;;;;;;;;5106920;28;24484;-46
2022/07/22 09:44:23;;;;;;;8.13;7.43;;;;;;;;;;5087945;28;24426;-46
2022/07/22 09:46:48;;;;;;;8.82;8.10;;;;;;;;;;5088646;28;24993;-46
2022/07/22 09:49:29;;;;;;;8.90;8.10;;;;;;;;;;5095099;28;24434;-46
2022/07/22 09:51:55;;;;;;;8.32;7.53;;;;;;;;;;5099150;28;25320;-46
2022/07/22 09:54:20;;;;;;;7.90;7.30;;;;;;;;;;5085092;28;25097;-46
2022/07/22 09:56:46;;;;;;;7.60;7.10;;;;;;;;;;5087949;28;24426;-45
2022/07/22 09:59:11;;;;;;;8.20;7.60;;;;;;;;;;5091336;28;24436;-46
2022/07/22 10:01:37;;;;;;;7.80;7.20;;;;;;;;;;5089638;28;24494;-46
2022/07/22 10:04:02;;;;;;;9.13;8.23;;;;;;;;;;5092494;28;24517;-46
2022/07/22 10:06:28;;;;;;;8.63;7.93;;;;;;;;;;5088100;28;24434;-45
2022/07/22 10:08:53;;;;;;;8.23;7.63;;;;;;;;;;5086853;28;24568;-46
2022/07/22 10:11:19;;;;;;;9.10;8.30;;;;;;;;;;5086340;28;24900;-46
2022/07/22 10:13:44;;;;;;;8.50;7.90;;;;;;;;;;5099711;28;25033;-46
2022/07/22 10:16:09;;;;;;;8.30;7.50;;;;;;;;;;5097025;28;24429;-46
2022/07/22 10:18:35;;;;;;;8.25;7.65;;;;;;;;;;5095950;28;24422;-46
2022/07/22 10:21:01;;;;;;;7.03;6.53;;;;;;;;;;5093433;28;25108;-46
2022/07/22 10:23:26;;;;;;;7.75;7.15;;;;;;;;;;5086073;28;24425;-46
2022/07/22 10:25:56;;;;;;;8.50;7.90;;;;;;;;;;5102407;28;24772;-46
2022/07/22 10:28:29;;;;;;;8.27;7.68;;;;;;;;;;5096647;28;24426;-48
2022/07/22 10:31:13;;;;;;;9.15;8.35;;;;;;;;;;5106283;28;24404;-45
2022/07/22 10:33:38;;;;;;;9.10;7.60;;;;;;;;;;5107004;28;24434;-46
2022/07/22 10:36:04;;;;;;;7.82;7.30;;;;;;;;;;5089831;28;24543;-45
2022/07/22 10:38:31;;;;;;;8.47;7.87;;;;;;;;;;5086815;28;24456;-45
2022/07/22 10:40:56;;;;;;;8.93;8.25;;;;;;;;;;5106896;28;24526;-45
2022/07/22 10:43:22;;;;;;;8.60;7.80;;;;;;;;;;5097778;28;24452;-44
2022/07/22 10:45:48;;;;;;;9.05;8.25;;;;;;;;;;5104010;28;24504;-45
2022/07/22 10:48:14;;;;;;;8.68;7.97;;;;;;;;;;5103752;28;24441;-45
2022/07/22 10:50:44;;;;;;;8.20;7.60;;;;;;;;;;5085861;28;24461;-45
2022/07/22 10:53:10;;;;;;;8.88;8.18;;;;;;;;;;5086474;28;24469;-46
2022/07/22 10:55:36;;;;;;;8.32;7.72;;;;;;;;;;5087191;28;24785;-46
2022/07/22 10:58:21;;;;;;;8.30;7.70;;;;;;;;;;5087272;28;24758;-46
2022/07/22 11:00:46;;;;;;;8.65;7.85;;;;;;;;;;5071914;28;25021;-46
2022/07/22 11:03:12;;;;;;;7.40;6.90;;;;;;;;;;5085902;28;24453;-46
2022/07/22 11:05:37;;;;;;;7.93;7.23;;;;;;;;;;5100630;28;24468;-46
2022/07/22 11:08:08;;;;;;;8.63;8.02;;;;;;;;;;5093882;28;24414;-46
2022/07/22 11:10:33;;;;;;;8.50;7.70;;;;;;;;;;5089618;28;24453;-46
2022/07/22 11:12:58;;;;;;;8.10;7.50;;;;;;;;;;5105421;28;24425;-46
2022/07/22 11:15:27;;;;;;;7.80;7.20;;;;;;;;;;5106955;28;24405;-46
2022/07/22 11:17:55;;;;;;;8.18;7.57;;;;;;;;;;5096337;28;24571;-46
2022/07/22 11:20:20;;;;;;;8.18;7.57;;;;;;;;;;5085358;28;24425;-46
2022/07/22 11:22:46;;;;;;;7.90;7.20;;;;;;;;;;5091660;28;24760;-46
2022/07/22 11:25:12;;;;;;;7.40;6.87;;;;;;;;;;5091331;28;24519;-46
2022/07/22 11:27:37;;;;;;;8.15;7.47;;;;;;;;;;5093239;28;24418;-46
2022/07/22 11:30:04;;;;;;;8.67;7.97;;;;;;;;;;5088893;28;24459;-47
2022/07/22 11:32:31;;;;;;;7.83;7.33;;;;;;;;;;5085866;28;24479;-46
2022/07/22 11:34:56;;;;;;;8.13;7.40;;;;;;;;;;5085925;28;24540;-47
2022/07/22 11:37:23;;;;;;;8.00;7.40;;;;;;;;;;5092553;28;24905;-47
2022/07/22 11:39:48;;;;;;;8.00;7.30;;;;;;;;;;5094051;28;24509;-46
2022/07/22 11:42:13;;;;;;;8.03;7.43;;;;;;;;;;5085707;28;24525;-46
2022/07/22 11:44:38;;;;;;;7.63;7.03;;;;;;;;;;5085205;28;24568;-46
2022/07/22 11:47:04;;;;;;;8.00;7.40;;;;;;;;;;5088019;28;24764;-45
2022/07/22 11:49:30;;;;;;;7.07;6.57;;;;;;;;;;5089163;28;24768;-45
2022/07/22 11:51:55;;;;;;;7.20;6.70;;;;;;;;;;5095659;28;24891;-46
2022/07/22 11:54:21;;;;;;;8.40;7.80;;;;;;;;;;5090908;28;24433;-46
2022/07/22 11:56:46;;;;;;;8.02;7.43;;;;;;;;;;5086656;28;24515;-45
2022/07/22 11:59:13;;;;;;;8.00;7.40;;;;;;;;;;5105229;28;24425;-46
2022/07/22 12:01:38;;;;;;;7.50;6.90;;;;;;;;;;5088329;28;24543;-45
2022/07/22 12:04:05;;;;;;;8.07;7.38;;;;;;;;;;5086422;28;24465;-44
2022/07/22 12:06:34;;;;;;;7.77;7.10;;;;;;;;;;5086879;28;24426;-45
2022/07/22 12:09:12;;;;;;;7.68;7.07;;;;;;;;;;5090837;28;24425;-45
2022/07/22 12:11:39;;;;;;;7.68;6.97;;;;;;;;;;5092934;28;24936;-45
2022/07/22 12:14:06;;;;;;;7.60;7.00;;;;;;;;;;5085810;28;24429;-45
2022/07/22 12:16:31;;;;;;;7.53;6.85;;;;;;;;;;5085363;28;24422;-46
2022/07/22 12:19:02;;;;;;;7.53;6.88;;;;;;;;;;5085709;28;24836;-45
2022/07/22 12:21:28;;;;;;;7.70;7.00;;;;;;;;;;5086611;28;25046;-46
2022/07/22 12:23:55;;;;;;;7.20;6.60;;;;;;;;;;5091280;28;24453;-46
2022/07/22 12:26:36;;;;;;;7.50;6.90;;;;;;;;;;5095896;28;24952;-46
2022/07/22 12:29:14;;;;;;;7.10;6.50;;;;;;;;;;5085063;28;24433;-46
2022/07/22 12:31:44;;;;;;;7.07;6.47;;;;;;;;;;5089307;28;24425;-46
2022/07/22 12:34:09;;;;;;;7.28;6.68;;;;;;;;;;5084291;28;24458;-46
2022/07/22 12:36:34;;;;;;;7.07;6.60;;;;;;;;;;5088381;28;24586;-46
2022/07/22 12:39:10;;;;;;;7.27;6.67;;;;;;;;;;5085749;28;24482;-48
2022/07/22 12:41:44;;;;;;;6.13;5.60;;;;;;;;;;5084946;28;24433;-46
2022/07/22 12:44:14;;;;;;;7.35;6.00;;;;;;;;;;5086936;28;25105;-46
2022/07/22 12:46:55;;;;;;;6.20;5.80;;;;;;;;;;5085527;28;24409;-45
2022/07/22 12:49:24;;;;;;;6.53;6.05;;;;;;;;;;5085621;28;24456;-45
2022/07/22 12:52:06;;;;;;;5.93;5.53;;;;;;;;;;5086142;28;24414;-46
2022/07/22 12:54:31;;;;;;;6.65;5.88;;;;;;;;;;5091061;28;24533;-46
2022/07/22 12:56:56;;;;;;;6.18;5.78;;;;;;;;;;5089069;28;24920;-45
2022/07/22 12:59:21;;;;;;;6.45;5.95;;;;;;;;;;5099119;28;24421;-45
2022/07/22 13:01:48;;;;;;;6.00;5.60;;;;;;;;;;5108930;28;24434;-45
2022/07/22 13:04:13;;;;;;;5.68;5.28;;;;;;;;;;5101332;28;24478;-45
2022/07/22 13:06:39;;;;;;;5.97;5.47;;;;;;;;;;5088692;28;24426;-45
2022/07/22 13:09:04;;;;;;;5.88;5.40;;;;;;;;;;5092341;28;24464;-45
2022/07/22 13:11:30;;;;;;;6.47;5.90;;;;;;;;;;5105244;28;24397;-46
2022/07/22 13:13:55;;;;;;;6.17;5.67;;;;;;;;;;5088574;28;24550;-47
2022/07/22 13:16:21;;;;;;;5.80;5.30;;;;;;;;;;5089562;28;24505;-46
2022/07/22 13:18:46;;;;;;;6.00;5.50;;;;;;;;;;5098315;28;24975;-46
2022/07/22 13:21:11;;;;;;;5.90;5.50;;;;;;;;;;5095379;28;24963;-45
2022/07/22 13:23:36;;;;;;;6.03;5.63;;;;;;;;;;5092641;28;24486;-46
2022/07/22 13:26:01;;;;;;;5.87;5.47;;;;;;;;;;5091770;28;24423;-46
2022/07/22 13:28:27;;;;;;;5.80;5.40;;;;;;;;;;5103336;28;24471;-45
2022/07/22 13:30:52;;;;;;;6.00;5.50;;;;;;;;;;5109380;28;24977;-45
2022/07/22 13:33:17;;;;;;;5.73;5.23;;;;;;;;;;5095034;28;24414;-46
2022/07/22 13:35:42;;;;;;;5.40;4.90;;;;;;;;;;5097516;28;25133;-46
2022/07/22 13:38:07;;;;;;;5.90;5.40;;;;;;;;;;5101586;27;24422;-46
2022/07/22 13:40:32;;;;;;;5.72;5.22;;;;;;;;;;5098516;28;24978;-46
2022/07/22 13:42:58;;;;;;;5.22;4.80;;;;;;;;;;5090569;28;24422;-45
2022/07/22 13:45:24;;;;;;;5.70;5.30;;;;;;;;;;5090724;28;24540;-45
2022/07/22 13:47:49;;;;;;;5.70;5.20;;;;;;;;;;5086759;28;24428;-45
2022/07/22 13:50:14;;;;;;;5.10;4.73;;;;;;;;;;5092697;28;24464;-45
2022/07/22 13:52:39;;;;;;;5.20;4.90;;;;;;;;;;5096346;27;24759;-45
2022/07/22 13:55:05;;;;;;;5.60;5.20;;;;;;;;;;5114022;27;24518;-46
2022/07/22 13:57:30;;;;;;;5.20;4.90;;;;;;;;;;5090625;28;24483;-45
2022/07/22 13:59:55;;;;;;;5.10;4.70;;;;;;;;;;5084655;28;24457;-46
2022/07/22 14:02:21;;;;;;;5.20;4.80;;;;;;;;;;5089346;28;24780;-46
2022/07/22 14:04:46;;;;;;;5.43;5.03;;;;;;;;;;5096745;28;24487;-46
2022/07/22 14:07:11;;;;;;;4.90;4.60;;;;;;;;;;5088386;28;24413;-46
2022/07/22 14:09:36;;;;;;;5.20;4.80;;;;;;;;;;5109020;27;24908;-46
2022/07/22 14:12:01;;;;;;;4.80;4.50;;;;;;;;;;5102946;27;24418;-46
2022/07/22 14:14:27;;;;;;;5.57;5.17;;;;;;;;;;5096656;28;24433;-46
2022/07/22 14:16:52;;;;;;;5.45;5.05;;;;;;;;;;5090023;28;24498;-46
2022/07/22 14:19:17;;;;;;;5.30;5.00;;;;;;;;;;5105632;28;24555;-45
2022/07/22 14:21:44;;;;;;;5.00;4.60;;;;;;;;;;5098620;28;24426;-46
2022/07/22 14:24:09;;;;;;;5.30;5.00;;;;;;;;;;5089520;28;24483;-46
2022/07/22 14:26:35;;;;;;;5.43;5.03;;;;;;;;;;5084561;28;24390;-45